Time;durP1;ratioP1;P1;durP2;ratioP2;P2;SDS_P1;SDS_P2;PMS_P1;PMS_P2;Temp;Humidity;BMP_temperature;BMP_pressure;BME280_temperature;BME280_humidity;BME280_pressure;Samples;Min_cycle;Max_cycle;Signal;HPM_P1;HPM_P2
2022/05/13 00:00:13;;;;;;;2.20;2.00;;;15.10;99.90;;;;;;503118;236;28824;-70
2022/05/13 00:02:14;;;;;;;1.77;1.67;;;15.10;99.90;;;;;;503134;236;28773;-71
2022/05/13 00:04:15;;;;;;;1.80;1.70;;;15.10;99.90;;;;;;503128;236;28796;-75
2022/05/13 00:06:17;;;;;;;1.97;1.80;;;15.10;99.90;;;;;;503091;236;28780;-70
2022/05/13 00:08:18;;;;;;;2.13;2.03;;;15.10;99.90;;;;;;503104;236;28793;-70
2022/05/13 00:10:19;;;;;;;1.87;1.77;;;15.00;99.90;;;;;;503090;236;28870;-71
2022/05/13 00:12:20;;;;;;;1.70;1.60;;;15.00;99.90;;;;;;503112;236;29316;-71
2022/05/13 00:14:22;;;;;;;2.17;2.00;;;14.90;99.90;;;;;;503126;236;29245;-73
2022/05/13 00:16:23;;;;;;;2.60;2.40;;;14.90;99.90;;;;;;503095;236;29321;-71
2022/05/13 00:18:24;;;;;;;1.90;1.80;;;14.90;99.90;;;;;;503103;236;29392;-70
2022/05/13 00:20:25;;;;;;;2.17;2.03;;;14.90;99.90;;;;;;503065;236;28785;-71
2022/05/13 00:22:27;;;;;;;3.07;2.10;;;14.80;99.90;;;;;;503034;236;28790;-71
2022/05/13 00:24:28;;;;;;;2.00;1.90;;;14.70;99.90;;;;;;503104;236;28812;-74
2022/05/13 00:26:29;;;;;;;2.17;1.97;;;14.70;99.90;;;;;;503125;236;28776;-71
2022/05/13 00:28:30;;;;;;;1.93;1.80;;;14.70;99.90;;;;;;503068;236;28794;-71
2022/05/13 00:30:32;;;;;;;4.50;2.00;;;14.70;99.90;;;;;;501978;236;28775;-70
2022/05/13 00:32:33;;;;;;;2.03;1.83;;;14.70;99.90;;;;;;502851;236;28928;-70
2022/05/13 00:34:34;;;;;;;2.10;1.90;;;14.70;99.90;;;;;;502868;236;29243;-73
2022/05/13 00:36:35;;;;;;;1.93;1.83;;;14.70;99.90;;;;;;503051;236;29307;-70
2022/05/13 00:38:37;;;;;;;2.30;2.10;;;14.60;99.90;;;;;;503120;236;29014;-71
2022/05/13 00:40:38;;;;;;;3.60;2.30;;;14.60;99.90;;;;;;503083;236;29418;-70
2022/05/13 00:42:39;;;;;;;2.00;1.90;;;14.60;99.90;;;;;;503119;236;29252;-70
2022/05/13 00:44:40;;;;;;;2.23;2.03;;;14.60;99.90;;;;;;503151;236;28532;-74
2022/05/13 00:46:42;;;;;;;2.03;1.93;;;14.60;99.90;;;;;;503119;236;28820;-70
2022/05/13 00:48:43;;;;;;;1.80;1.70;;;14.50;99.90;;;;;;503101;236;28790;-72
2022/05/13 00:50:44;;;;;;;2.00;1.90;;;14.50;99.90;;;;;;503073;236;28765;-70
2022/05/13 00:52:45;;;;;;;2.50;2.30;;;14.50;99.90;;;;;;503086;236;28885;-71
2022/05/13 00:54:47;;;;;;;2.47;2.03;;;14.50;99.90;;;;;;503117;236;28515;-72
2022/05/13 00:56:48;;;;;;;2.13;2.00;;;14.40;99.90;;;;;;503119;236;28273;-72
2022/05/13 00:58:49;;;;;;;2.17;2.00;;;14.40;99.90;;;;;;503110;236;28292;-71
2022/05/13 01:00:50;;;;;;;2.20;1.87;;;14.40;99.90;;;;;;503132;236;28832;-71
2022/05/13 01:02:52;;;;;;;2.07;1.93;;;14.30;99.90;;;;;;503117;236;29241;-71
2022/05/13 01:04:53;;;;;;;2.37;2.17;;;14.30;99.90;;;;;;503118;236;29268;-71
2022/05/13 01:06:54;;;;;;;2.30;2.07;;;14.30;99.90;;;;;;503119;236;28253;-71
2022/05/13 01:08:56;;;;;;;2.40;2.30;;;14.30;99.90;;;;;;503099;236;28567;-72
2022/05/13 01:10:57;;;;;;;2.30;2.20;;;14.20;99.90;;;;;;502940;236;28365;-71
2022/05/13 01:12:58;;;;;;;2.07;1.93;;;14.20;99.90;;;;;;503107;236;28480;-71
2022/05/13 01:14:59;;;;;;;2.10;2.00;;;14.20;99.90;;;;;;503132;236;28790;-72
2022/05/13 01:19:20;;;;;;;1.93;1.83;;;14.10;99.90;;;;;;503074;236;28495;-70
2022/05/13 01:21:21;;;;;;;2.40;2.30;;;14.10;99.90;;;;;;503096;236;28369;-73
2022/05/13 01:23:23;;;;;;;2.90;2.70;;;14.10;99.90;;;;;;503102;236;28228;-70
2022/05/13 01:25:26;;;;;;;1.90;1.80;;;14.10;99.90;;;;;;503105;236;28843;-70
2022/05/13 01:27:26;;;;;;;2.60;2.40;;;14.10;99.90;;;;;;502942;236;29607;-70
2022/05/13 01:29:26;;;;;;;1.90;1.80;;;14.10;99.90;;;;;;503130;236;28897;-70
2022/05/13 01:31:29;;;;;;;2.03;1.70;;;14.00;99.90;;;;;;503147;236;28504;-71
2022/05/13 01:33:29;;;;;;;2.50;1.97;;;14.00;99.90;;;;;;503003;236;28563;-70
2022/05/13 01:35:30;;;;;;;2.37;2.27;;;13.90;99.90;;;;;;503136;236;28780;-71
2022/05/13 01:37:31;;;;;;;1.87;1.77;;;13.90;99.90;;;;;;503132;236;28445;-70
2022/05/13 01:39:33;;;;;;;2.67;2.13;;;13.90;99.90;;;;;;503166;236;28227;-71
2022/05/13 01:41:34;;;;;;;2.93;2.10;;;13.80;99.90;;;;;;503132;236;28322;-72
2022/05/13 01:43:35;;;;;;;2.30;2.20;;;13.70;99.90;;;;;;503125;236;28268;-71
2022/05/13 01:45:36;;;;;;;3.03;2.10;;;13.70;99.90;;;;;;503128;236;28466;-70
2022/05/13 01:47:38;;;;;;;2.30;2.20;;;13.70;99.90;;;;;;503120;236;28688;-70
2022/05/13 01:49:39;;;;;;;2.40;2.30;;;13.60;99.90;;;;;;503138;236;28894;-71
2022/05/13 01:51:40;;;;;;;2.30;2.13;;;13.60;99.90;;;;;;503146;236;28154;-70
2022/05/13 01:53:41;;;;;;;2.30;2.20;;;13.60;99.90;;;;;;503129;236;28260;-71
2022/05/13 01:55:43;;;;;;;1.90;1.80;;;13.60;99.90;;;;;;503134;236;28258;-72
2022/05/13 01:57:44;;;;;;;4.33;2.07;;;13.60;99.90;;;;;;503129;236;28614;-70
2022/05/13 01:59:45;;;;;;;2.33;2.10;;;13.50;99.90;;;;;;503097;236;28190;-70
2022/05/13 02:01:46;;;;;;;2.27;2.17;;;13.50;99.90;;;;;;503136;236;28714;-74
2022/05/13 02:03:48;;;;;;;2.53;2.33;;;13.50;99.90;;;;;;503120;236;28860;-70
2022/05/13 02:05:49;;;;;;;2.67;2.50;;;13.40;99.90;;;;;;503113;236;28294;-71
2022/05/13 02:07:50;;;;;;;2.50;2.33;;;13.40;99.90;;;;;;503129;236;28126;-70
2022/05/13 02:09:51;;;;;;;2.77;2.67;;;13.40;99.90;;;;;;503159;236;28146;-71
2022/05/13 02:11:53;;;;;;;2.60;2.50;;;13.40;99.90;;;;;;503133;236;28225;-74
2022/05/13 02:13:54;;;;;;;2.30;2.20;;;13.40;99.90;;;;;;503131;236;28137;-70
2022/05/13 02:15:55;;;;;;;2.50;2.40;;;13.40;99.90;;;;;;503103;236;28813;-71
2022/05/13 02:17:56;;;;;;;2.47;2.37;;;13.40;99.90;;;;;;503092;236;28137;-70
2022/05/13 02:19:58;;;;;;;2.70;2.50;;;13.30;99.90;;;;;;503139;236;28236;-71
2022/05/13 02:21:59;;;;;;;3.00;2.50;;;13.20;99.90;;;;;;503125;236;28656;-74
2022/05/13 02:24:00;;;;;;;4.43;2.90;;;13.00;99.90;;;;;;503110;236;28791;-71
2022/05/13 02:26:01;;;;;;;2.80;2.40;;;13.00;99.90;;;;;;503118;236;28742;-72
2022/05/13 02:28:03;;;;;;;3.10;2.77;;;13.10;99.90;;;;;;503137;236;28249;-70
2022/05/13 02:30:04;;;;;;;2.93;2.73;;;13.20;99.90;;;;;;503131;236;28131;-71
2022/05/13 02:32:05;;;;;;;3.57;3.27;;;13.20;99.90;;;;;;503144;236;28283;-72
2022/05/13 02:34:06;;;;;;;2.80;2.60;;;13.10;99.90;;;;;;503084;236;28237;-71
2022/05/13 02:36:08;;;;;;;3.07;2.70;;;13.20;99.90;;;;;;503145;236;28279;-71
2022/05/13 02:38:09;;;;;;;2.90;2.67;;;13.30;99.90;;;;;;503123;236;28767;-70
2022/05/13 02:40:10;;;;;;;5.73;2.87;;;13.20;99.90;;;;;;503151;236;28276;-70
2022/05/13 02:42:11;;;;;;;3.83;2.83;;;13.10;99.90;;;;;;503131;236;28269;-72
2022/05/13 02:44:14;;;;;;;2.90;2.60;;;13.10;99.90;;;;;;503162;236;28213;-70
2022/05/13 02:46:14;;;;;;;5.63;2.60;;;13.10;99.90;;;;;;503065;236;28844;-71
2022/05/13 02:48:15;;;;;;;2.83;2.67;;;13.10;99.90;;;;;;503083;236;29430;-70
2022/05/13 02:50:21;;;;;;;2.80;2.60;;;13.20;99.90;;;;;;503144;236;28633;-70
2022/05/13 02:52:21;;;;;;;3.13;2.53;;;13.20;99.90;;;;;;503047;236;28129;-70
2022/05/13 02:54:22;;;;;;;2.90;2.70;;;13.20;99.90;;;;;;503117;236;28206;-71
2022/05/13 02:56:24;;;;;;;3.03;2.80;;;13.30;99.90;;;;;;503102;236;28137;-70
2022/05/13 02:58:24;;;;;;;2.40;2.20;;;13.30;99.90;;;;;;503083;236;28165;-71
2022/05/13 03:00:26;;;;;;;2.20;2.10;;;13.20;99.90;;;;;;503166;236;28222;-74
2022/05/13 03:02:27;;;;;;;2.30;2.20;;;13.20;99.90;;;;;;503114;236;28265;-70
2022/05/13 03:04:28;;;;;;;3.07;2.87;;;13.30;99.90;;;;;;503110;236;28660;-71
2022/05/13 03:06:30;;;;;;;2.67;2.47;;;13.30;99.90;;;;;;503113;236;28698;-71
2022/05/13 03:08:32;;;;;;;2.57;2.37;;;13.30;99.90;;;;;;503093;236;28796;-71
2022/05/13 03:10:33;;;;;;;2.43;2.33;;;13.30;99.90;;;;;;503072;236;28149;-70
2022/05/13 03:12:35;;;;;;;3.00;2.53;;;13.30;99.90;;;;;;503164;236;28893;-70
2022/05/13 03:14:35;;;;;;;2.90;2.57;;;13.30;99.90;;;;;;503102;236;28668;-71
2022/05/13 03:16:37;;;;;;;2.80;2.30;;;13.30;99.90;;;;;;503099;236;28822;-70
2022/05/13 03:18:41;;;;;;;2.10;2.00;;;13.30;99.90;;;;;;503100;236;28663;-70
2022/05/13 03:20:39;;;;;;;2.70;2.50;;;13.30;99.90;;;;;;502924;236;28277;-71
2022/05/13 03:22:40;;;;;;;2.67;2.47;;;13.30;99.90;;;;;;503121;236;28351;-72
2022/05/13 03:24:42;;;;;;;2.30;2.10;;;13.20;99.90;;;;;;503138;236;28127;-71
2022/05/13 03:26:43;;;;;;;2.13;1.93;;;13.10;99.90;;;;;;503125;236;28253;-71
2022/05/13 03:28:44;;;;;;;2.57;2.43;;;13.10;99.90;;;;;;503095;236;28366;-71
2022/05/13 03:30:45;;;;;;;2.60;2.40;;;13.00;99.90;;;;;;503080;236;28322;-71
2022/05/13 03:32:47;;;;;;;2.50;2.33;;;13.00;99.90;;;;;;503003;236;28175;-74
2022/05/13 03:34:48;;;;;;;3.07;2.17;;;13.00;99.90;;;;;;503092;236;28147;-70
2022/05/13 03:36:49;;;;;;;2.43;2.33;;;13.00;99.90;;;;;;503107;236;28742;-71
2022/05/13 03:38:51;;;;;;;2.37;2.17;;;12.90;99.90;;;;;;503088;236;28633;-70
2022/05/13 03:40:52;;;;;;;4.40;2.53;;;13.00;99.90;;;;;;503130;236;28960;-70
2022/05/13 03:42:53;;;;;;;2.10;2.00;;;13.00;99.90;;;;;;503144;236;28252;-72
2022/05/13 03:44:56;;;;;;;2.20;2.10;;;;;;;;;;503112;236;28192;-71
2022/05/13 03:46:59;;;;;;;2.40;2.30;;;;;;;;;;503128;236;26469;-70
2022/05/13 03:49:00;;;;;;;2.50;2.30;;;13.00;99.90;;;;;;503030;236;26645;-70
2022/05/13 03:51:00;;;;;;;2.20;2.00;;;13.10;99.90;;;;;;503058;236;28282;-70
2022/05/13 03:53:02;;;;;;;2.73;2.30;;;13.00;99.90;;;;;;503121;236;28162;-72
2022/05/13 03:55:03;;;;;;;2.20;2.10;;;13.00;99.90;;;;;;503095;236;28354;-71
2022/05/13 03:57:04;;;;;;;2.63;2.47;;;13.10;99.90;;;;;;503044;236;28222;-70
2022/05/13 03:59:05;;;;;;;2.47;2.27;;;13.10;99.90;;;;;;503152;236;28742;-74
2022/05/13 04:01:07;;;;;;;2.20;2.00;;;13.10;99.90;;;;;;503131;236;28857;-73
2022/05/13 04:03:08;;;;;;;2.63;2.43;;;13.10;99.90;;;;;;503157;236;28751;-70
2022/05/13 04:09:48;;;;;;;2.80;2.60;;;13.10;99.90;;;;;;503087;236;28316;-72
2022/05/13 04:16:29;;;;;;;2.10;2.00;;;13.00;99.90;;;;;;503084;236;28336;-71
2022/05/13 04:18:30;;;;;;;2.90;2.70;;;12.90;99.90;;;;;;503091;236;28160;-71
2022/05/13 04:20:32;;;;;;;2.60;2.40;;;12.90;99.90;;;;;;503114;236;28296;-71
2022/05/13 04:22:32;;;;;;;2.10;2.00;;;12.90;99.90;;;;;;503093;236;28212;-70
2022/05/13 04:24:34;;;;;;;2.53;2.37;;;12.90;99.90;;;;;;503062;236;28337;-71
2022/05/13 04:26:35;;;;;;;2.30;2.07;;;12.90;99.90;;;;;;503079;236;28741;-71
2022/05/13 04:28:36;;;;;;;2.37;2.27;;;12.90;99.90;;;;;;503119;236;28670;-73
2022/05/13 04:30:37;;;;;;;2.50;2.30;;;12.90;99.90;;;;;;503128;236;28611;-71
2022/05/13 04:32:39;;;;;;;2.13;2.03;;;13.00;99.90;;;;;;502984;236;28200;-70
2022/05/13 04:34:40;;;;;;;2.93;2.73;;;13.00;99.90;;;;;;503088;236;28176;-71
2022/05/13 04:36:41;;;;;;;2.93;2.83;;;12.90;99.90;;;;;;503103;236;28169;-71
2022/05/13 04:38:44;;;;;;;3.03;2.83;;;12.90;99.90;;;;;;503126;236;28428;-71
2022/05/13 04:40:44;;;;;;;2.90;2.60;;;12.90;99.90;;;;;;502968;236;28142;-70
2022/05/13 04:42:49;;;;;;;3.23;3.03;;;;;;;;;;503100;236;28359;-71
2022/05/13 04:44:50;;;;;;;2.80;2.60;;;12.80;99.90;;;;;;503109;236;26582;-71
2022/05/13 04:46:51;;;;;;;2.77;2.40;;;12.90;99.90;;;;;;503116;236;28267;-71
2022/05/13 04:48:53;;;;;;;2.90;2.70;;;12.90;99.90;;;;;;503128;236;28265;-74
2022/05/13 04:50:54;;;;;;;2.70;2.60;;;13.00;99.90;;;;;;503134;236;28329;-71
2022/05/13 04:52:55;;;;;;;2.90;2.70;;;13.00;99.90;;;;;;503140;236;28266;-72
2022/05/13 04:54:56;;;;;;;3.27;2.63;;;13.00;99.90;;;;;;503082;236;28656;-70
2022/05/13 04:56:58;;;;;;;3.03;2.83;;;13.00;99.90;;;;;;503108;236;28798;-71
2022/05/13 04:59:00;;;;;;;2.90;2.70;;;;;;;;;;503125;236;28645;-70
2022/05/13 05:01:01;;;;;;;3.40;3.20;;;12.90;99.90;;;;;;503094;236;26728;-71
2022/05/13 05:03:03;;;;;;;4.43;3.40;;;13.00;99.90;;;;;;503090;236;28368;-72
2022/05/13 05:05:05;;;;;;;4.60;2.70;;;;;;;;;;503114;236;28143;-71
2022/05/13 05:07:06;;;;;;;3.23;3.03;;;12.90;99.90;;;;;;503095;236;26991;-70
2022/05/13 05:09:08;;;;;;;2.67;2.57;;;13.00;99.90;;;;;;503080;236;28763;-71
2022/05/13 05:11:09;;;;;;;3.93;2.97;;;13.00;99.90;;;;;;503066;236;28133;-71
2022/05/13 05:13:11;;;;;;;3.00;2.80;;;;;;;;;;503146;236;28580;-71
2022/05/13 05:15:13;;;;;;;2.80;2.57;;;13.00;99.90;;;;;;503139;236;26604;-71
2022/05/13 05:17:14;;;;;;;3.10;3.00;;;13.10;99.90;;;;;;503098;236;28632;-70
2022/05/13 05:19:15;;;;;;;4.07;3.70;;;13.10;99.90;;;;;;502881;236;28686;-70
2022/05/13 05:21:16;;;;;;;3.20;3.00;;;13.10;99.90;;;;;;502960;236;28664;-71
2022/05/13 05:23:18;;;;;;;3.13;2.93;;;13.20;99.90;;;;;;503126;236;28263;-71
2022/05/13 05:25:19;;;;;;;3.77;2.60;;;13.20;99.90;;;;;;503104;236;28122;-71
2022/05/13 05:27:20;;;;;;;3.30;3.10;;;13.20;99.90;;;;;;503096;236;28676;-70
2022/05/13 05:29:21;;;;;;;3.03;2.83;;;13.30;99.90;;;;;;503128;236;29390;-70
2022/05/13 05:31:23;;;;;;;2.67;2.47;;;13.40;99.90;;;;;;503143;236;28680;-71
2022/05/13 05:33:24;;;;;;;2.97;2.73;;;13.40;99.90;;;;;;503141;236;28171;-71
2022/05/13 05:35:25;;;;;;;2.70;2.50;;;13.40;99.90;;;;;;503123;236;28255;-70
2022/05/13 05:37:27;;;;;;;2.50;2.40;;;13.40;99.90;;;;;;503105;236;28222;-71
2022/05/13 05:39:28;;;;;;;3.50;2.30;;;13.40;99.90;;;;;;503112;236;28207;-71
2022/05/13 05:41:29;;;;;;;3.43;2.40;;;13.40;99.90;;;;;;503160;236;28231;-71
2022/05/13 05:43:30;;;;;;;2.57;2.47;;;13.40;99.90;;;;;;503162;236;28373;-72
2022/05/13 05:45:31;;;;;;;2.90;2.70;;;13.50;99.90;;;;;;503078;236;28235;-70
2022/05/13 05:47:33;;;;;;;2.97;2.77;;;13.50;99.90;;;;;;503101;236;28172;-71
2022/05/13 05:49:34;;;;;;;3.87;3.30;;;13.50;99.90;;;;;;503089;236;28241;-71
2022/05/13 05:51:35;;;;;;;2.80;2.60;;;13.60;99.90;;;;;;503116;236;28734;-70
2022/05/13 05:58:16;;;;;;;4.13;3.00;;;13.70;99.90;;;;;;503119;236;28415;-70
2022/05/13 06:00:17;;;;;;;3.87;2.73;;;13.70;99.90;;;;;;503108;236;28363;-71
2022/05/13 06:02:19;;;;;;;2.90;2.70;;;13.80;99.90;;;;;;502905;236;29290;-71
2022/05/13 06:04:21;;;;;;;2.83;2.57;;;13.80;99.90;;;;;;503138;236;28396;-71
2022/05/13 06:06:22;;;;;;;5.33;2.73;;;13.90;99.90;;;;;;503121;236;28130;-71
2022/05/13 06:08:23;;;;;;;3.13;2.93;;;13.90;99.90;;;;;;503142;236;29114;-70
2022/05/13 06:10:24;;;;;;;3.67;3.10;;;13.90;99.90;;;;;;503105;236;28605;-70
2022/05/13 06:12:26;;;;;;;4.10;2.93;;;13.90;99.90;;;;;;503120;236;28799;-70
2022/05/13 06:14:27;;;;;;;3.07;2.93;;;13.90;99.90;;;;;;503131;236;28264;-73
2022/05/13 06:16:28;;;;;;;3.07;2.87;;;14.00;99.90;;;;;;503089;236;28235;-71
2022/05/13 06:18:29;;;;;;;4.47;3.40;;;14.00;99.90;;;;;;503111;236;28265;-71
2022/05/13 06:20:31;;;;;;;4.87;3.20;;;14.00;99.90;;;;;;503132;236;28839;-70
2022/05/13 06:22:32;;;;;;;3.93;2.90;;;14.00;99.90;;;;;;503138;236;28688;-70
2022/05/13 06:24:33;;;;;;;3.30;3.00;;;14.00;99.90;;;;;;503119;236;28893;-72
2022/05/13 06:26:34;;;;;;;3.00;2.80;;;14.10;99.90;;;;;;503112;236;28824;-70
2022/05/13 06:28:36;;;;;;;3.00;2.70;;;14.10;99.90;;;;;;503058;236;28429;-70
2022/05/13 06:30:38;;;;;;;3.80;3.47;;;14.10;99.90;;;;;;503044;236;28264;-71
2022/05/13 06:32:38;;;;;;;3.33;3.13;;;14.20;99.90;;;;;;502982;236;28596;-71
2022/05/13 06:34:39;;;;;;;6.13;3.70;;;14.20;99.90;;;;;;503082;236;28392;-75
2022/05/13 06:36:41;;;;;;;3.60;3.30;;;14.20;99.90;;;;;;503102;236;28247;-71
2022/05/13 06:38:42;;;;;;;3.63;3.33;;;14.20;99.90;;;;;;503045;236;28513;-72
2022/05/13 06:40:43;;;;;;;5.60;3.20;;;14.30;99.90;;;;;;503093;236;28136;-70
2022/05/13 06:42:45;;;;;;;5.97;3.17;;;14.40;99.90;;;;;;503018;236;28243;-70
2022/05/13 06:44:46;;;;;;;3.73;3.20;;;14.40;99.90;;;;;;503125;236;28497;-73
2022/05/13 06:46:47;;;;;;;3.33;3.03;;;14.50;99.90;;;;;;503154;236;29058;-70
2022/05/13 06:48:48;;;;;;;4.00;3.40;;;14.60;99.90;;;;;;503130;236;29273;-71
2022/05/13 06:50:49;;;;;;;3.40;3.17;;;14.60;99.90;;;;;;503129;236;29047;-71
2022/05/13 06:52:51;;;;;;;3.90;3.60;;;14.60;99.90;;;;;;503109;236;28799;-71
2022/05/13 06:54:52;;;;;;;3.67;3.37;;;14.60;99.90;;;;;;503135;236;28787;-76
2022/05/13 06:56:54;;;;;;;3.83;3.53;;;14.60;99.90;;;;;;503066;236;28769;-71
2022/05/13 06:58:54;;;;;;;3.87;3.10;;;14.50;99.90;;;;;;503069;236;28894;-71
2022/05/13 07:00:56;;;;;;;4.27;3.90;;;14.50;99.90;;;;;;503138;236;28798;-70
2022/05/13 07:02:57;;;;;;;4.63;3.27;;;14.50;99.90;;;;;;503112;236;28378;-71
2022/05/13 07:04:58;;;;;;;2.10;1.90;;;14.60;99.90;;;;;;503138;236;28885;-73
2022/05/13 07:07:02;;;;;;;2.90;2.57;;;14.60;99.90;;;;;;502962;236;28352;-71
2022/05/13 07:09:05;;;;;;;3.43;2.70;;;14.70;99.90;;;;;;503127;236;29245;-71
2022/05/13 07:11:07;;;;;;;6.90;2.90;;;14.70;99.90;;;;;;503141;236;28756;-70
2022/05/13 07:13:07;;;;;;;2.53;2.33;;;14.70;99.90;;;;;;503013;236;29257;-70
2022/05/13 07:15:10;;;;;;;4.93;2.67;;;14.60;99.90;;;;;;503106;236;29297;-71
2022/05/13 07:17:10;;;;;;;3.47;2.50;;;14.70;99.90;;;;;;502998;236;29238;-71
2022/05/13 07:19:11;;;;;;;2.40;2.13;;;14.80;99.90;;;;;;503126;236;29260;-71
2022/05/13 07:21:12;;;;;;;4.33;2.27;;;14.80;99.90;;;;;;503032;236;28798;-70
2022/05/13 07:23:14;;;;;;;5.30;2.37;;;14.80;99.90;;;;;;503123;236;28787;-71
2022/05/13 07:25:15;;;;;;;5.73;2.40;;;14.80;99.90;;;;;;503147;236;28853;-74
2022/05/13 07:27:16;;;;;;;3.20;2.50;;;14.90;99.90;;;;;;503127;236;28764;-70
2022/05/13 07:29:17;;;;;;;6.43;3.00;;;14.90;99.90;;;;;;503112;236;28814;-70
2022/05/13 07:31:19;;;;;;;4.40;2.37;;;14.70;99.90;;;;;;503112;236;28764;-70
2022/05/13 07:33:21;;;;;;;5.87;2.70;;;14.70;99.90;;;;;;503123;236;28790;-72
2022/05/13 07:35:21;;;;;;;4.30;2.50;;;14.70;99.90;;;;;;503083;236;28887;-72
2022/05/13 07:37:22;;;;;;;4.20;2.63;;;14.80;99.90;;;;;;503141;236;28756;-71
2022/05/13 07:41:43;;;;;;;2.63;2.43;;;14.90;99.90;;;;;;503131;236;28915;-71
2022/05/13 07:43:45;;;;;;;2.37;2.17;;;14.90;99.90;;;;;;503132;236;28777;-71
2022/05/13 07:45:46;;;;;;;4.53;2.60;;;14.90;99.90;;;;;;503092;236;29346;-71
2022/05/13 07:47:47;;;;;;;3.63;2.10;;;14.90;99.90;;;;;;503122;236;30025;-71
2022/05/13 07:49:49;;;;;;;2.50;2.00;;;15.00;99.90;;;;;;503133;236;28763;-72
2022/05/13 07:51:50;;;;;;;2.80;2.50;;;15.10;99.90;;;;;;503121;236;28824;-72
2022/05/13 07:53:51;;;;;;;6.50;2.67;;;15.10;99.90;;;;;;503093;236;28538;-70
2022/05/13 07:55:53;;;;;;;4.30;2.33;;;15.10;99.90;;;;;;503095;236;28893;-71
2022/05/13 07:57:54;;;;;;;2.87;2.30;;;15.10;99.90;;;;;;503121;236;28578;-72
2022/05/13 08:02:14;;;;;;;8.80;2.80;;;15.00;99.90;;;;;;502782;236;28840;-71
2022/05/13 08:04:17;;;;;;;4.80;2.20;;;15.00;99.90;;;;;;502910;236;28917;-72
2022/05/13 08:06:18;;;;;;;4.70;2.87;;;14.90;99.90;;;;;;503047;236;28821;-71
2022/05/13 08:08:19;;;;;;;2.50;2.30;;;14.90;99.90;;;;;;503112;236;28764;-70
2022/05/13 08:10:21;;;;;;;3.10;2.40;;;15.10;99.90;;;;;;503088;236;29278;-71
2022/05/13 08:12:22;;;;;;;3.73;2.17;;;15.00;99.90;;;;;;503141;236;29313;-73
2022/05/13 08:14:23;;;;;;;5.30;2.33;;;15.20;99.90;;;;;;503101;236;29246;-71
2022/05/13 08:16:26;;;;;;;4.30;2.60;;;15.20;99.90;;;;;;503103;236;29253;-73
2022/05/13 08:18:26;;;;;;;5.77;2.43;;;15.20;99.90;;;;;;503026;236;28756;-70
2022/05/13 08:20:27;;;;;;;3.40;2.43;;;15.20;99.90;;;;;;503109;236;28795;-70
2022/05/13 08:22:28;;;;;;;2.67;2.40;;;15.20;99.90;;;;;;503155;236;28972;-74
2022/05/13 08:24:29;;;;;;;3.87;2.30;;;15.10;99.90;;;;;;503114;236;29203;-71
2022/05/13 08:26:31;;;;;;;5.33;2.00;;;15.10;99.90;;;;;;503096;236;29289;-72
2022/05/13 08:28:32;;;;;;;3.03;2.03;;;15.20;99.90;;;;;;503126;236;29260;-70
2022/05/13 08:30:33;;;;;;;3.07;1.97;;;15.30;99.90;;;;;;503125;236;29311;-71
2022/05/13 08:32:34;;;;;;;2.03;1.87;;;15.40;99.90;;;;;;503150;236;28790;-72
2022/05/13 08:34:36;;;;;;;4.90;2.87;;;15.30;99.90;;;;;;503127;236;28878;-70
2022/05/13 08:36:37;;;;;;;4.10;2.10;;;15.30;99.90;;;;;;503075;236;28807;-72
2022/05/13 08:38:38;;;;;;;3.10;2.20;;;15.40;99.90;;;;;;502975;236;28838;-71
2022/05/13 08:40:39;;;;;;;5.07;2.30;;;15.40;99.90;;;;;;503097;236;28894;-71
2022/05/13 08:42:41;;;;;;;3.97;2.17;;;15.40;99.90;;;;;;503150;236;28810;-71
2022/05/13 08:44:42;;;;;;;3.23;2.47;;;15.50;99.90;;;;;;503128;236;28865;-70
2022/05/13 08:46:44;;;;;;;4.00;2.27;;;15.70;99.90;;;;;;503128;236;28786;-72
2022/05/13 08:48:44;;;;;;;3.43;2.33;;;15.70;99.90;;;;;;503122;236;29270;-71
2022/05/13 08:50:46;;;;;;;3.17;1.90;;;15.70;99.90;;;;;;503107;236;29306;-70
2022/05/13 08:55:07;;;;;;;3.67;2.23;;;15.60;99.90;;;;;;503113;236;29320;-71
2022/05/13 08:57:08;;;;;;;2.57;2.33;;;15.60;99.90;;;;;;503106;236;29386;-70
2022/05/13 08:59:09;;;;;;;4.13;2.60;;;15.70;99.90;;;;;;503176;236;29392;-71
2022/05/13 09:01:11;;;;;;;3.50;2.40;;;15.60;99.90;;;;;;503182;236;28759;-71
2022/05/13 09:03:12;;;;;;;7.23;2.33;;;15.50;99.90;;;;;;503123;236;28792;-70
2022/05/13 09:05:13;;;;;;;2.50;2.10;;;15.60;99.90;;;;;;503115;236;28847;-71
2022/05/13 09:07:16;;;;;;;3.73;2.60;;;15.60;99.90;;;;;;503099;236;28864;-71
2022/05/13 09:09:15;;;;;;;5.97;2.13;;;15.80;99.90;;;;;;503052;236;28819;-74
2022/05/13 09:11:17;;;;;;;4.10;2.37;;;15.80;99.90;;;;;;503137;236;28779;-71
2022/05/13 09:13:18;;;;;;;5.27;2.30;;;16.00;99.90;;;;;;503149;236;28798;-71
2022/05/13 09:15:19;;;;;;;3.30;2.37;;;16.00;99.90;;;;;;503125;236;28770;-71
2022/05/13 09:17:21;;;;;;;8.93;2.17;;;16.10;99.90;;;;;;503066;236;28802;-71
2022/05/13 09:19:22;;;;;;;3.07;1.50;;;16.10;99.90;;;;;;503123;236;29186;-71
2022/05/13 09:21:23;;;;;;;6.40;2.10;;;16.00;99.90;;;;;;503149;236;28782;-70
2022/05/13 09:23:25;;;;;;;3.83;2.53;;;15.90;99.90;;;;;;503109;236;29263;-71
2022/05/13 09:25:27;;;;;;;9.17;2.00;;;15.90;99.90;;;;;;503142;236;28806;-71
2022/05/13 09:27:28;;;;;;;3.63;2.10;;;15.90;99.90;;;;;;503109;236;28882;-71
2022/05/13 09:29:29;;;;;;;4.83;2.13;;;15.80;99.90;;;;;;503095;236;29305;-72
2022/05/13 09:31:30;;;;;;;2.97;2.17;;;15.90;99.90;;;;;;503146;236;29330;-73
2022/05/13 09:33:32;;;;;;;2.70;1.93;;;16.10;99.90;;;;;;503138;236;29201;-71
2022/05/13 09:35:33;;;;;;;3.90;1.73;;;16.20;99.90;;;;;;503119;236;28807;-72
2022/05/13 09:37:34;;;;;;;7.87;1.90;;;16.30;99.90;;;;;;503081;236;28769;-70
2022/05/13 09:39:35;;;;;;;5.60;1.97;;;16.40;99.90;;;;;;503095;236;28790;-70
2022/05/13 09:41:37;;;;;;;3.47;1.97;;;16.40;99.90;;;;;;503137;236;28810;-73
2022/05/13 09:43:38;;;;;;;4.63;2.10;;;16.30;99.90;;;;;;503146;236;28801;-71
2022/05/13 09:45:39;;;;;;;4.60;1.80;;;16.30;99.90;;;;;;503105;236;28806;-70
2022/05/13 09:47:40;;;;;;;3.00;2.00;;;16.20;99.90;;;;;;503059;236;28772;-71
2022/05/13 09:49:42;;;;;;;3.33;1.77;;;16.30;99.90;;;;;;503108;236;28782;-71
2022/05/13 09:51:43;;;;;;;3.27;1.70;;;16.20;99.90;;;;;;503123;236;29214;-70
2022/05/13 09:53:44;;;;;;;1.70;1.50;;;16.20;99.90;;;;;;503161;236;29199;-71
2022/05/13 09:55:45;;;;;;;1.80;1.70;;;16.40;99.90;;;;;;503132;236;29286;-71
2022/05/13 09:57:47;;;;;;;2.50;1.53;;;16.60;99.90;;;;;;503117;236;29234;-71
2022/05/13 09:59:48;;;;;;;2.47;1.63;;;16.60;99.90;;;;;;503130;236;28807;-72
2022/05/13 10:01:49;;;;;;;3.53;2.00;;;16.40;99.90;;;;;;503148;236;28779;-71
2022/05/13 10:03:50;;;;;;;2.87;1.60;;;16.50;99.90;;;;;;503170;236;28752;-71
2022/05/13 10:05:52;;;;;;;1.80;1.53;;;16.60;99.90;;;;;;503143;236;28864;-74
2022/05/13 10:07:53;;;;;;;4.00;1.67;;;16.40;99.90;;;;;;503158;236;28840;-70
2022/05/13 10:14:33;;;;;;;4.73;1.60;;;16.60;99.90;;;;;;503156;236;29230;-71
2022/05/13 10:16:34;;;;;;;1.80;1.70;;;16.60;99.90;;;;;;503101;236;29271;-71
2022/05/13 10:18:37;;;;;;;4.57;1.90;;;16.70;99.90;;;;;;503156;236;28833;-71
2022/05/13 10:20:37;;;;;;;3.47;1.67;;;16.90;99.90;;;;;;503049;236;28770;-71
2022/05/13 10:22:38;;;;;;;2.03;1.80;;;17.00;99.90;;;;;;503118;236;28823;-73
2022/05/13 10:24:39;;;;;;;1.60;1.50;;;16.90;99.90;;;;;;503167;236;28832;-71
2022/05/13 10:26:41;;;;;;;5.63;1.80;;;17.00;99.90;;;;;;503152;236;28803;-71
2022/05/13 10:28:42;;;;;;;1.47;1.40;;;16.90;99.90;;;;;;503151;236;28775;-71
2022/05/13 10:30:43;;;;;;;1.43;1.33;;;16.70;99.90;;;;;;503117;236;28828;-71
2022/05/13 10:32:44;;;;;;;1.83;1.70;;;16.60;99.90;;;;;;503154;236;28803;-75
2022/05/13 10:34:48;;;;;;;2.43;1.60;;;16.60;99.90;;;;;;503152;236;28761;-71
2022/05/13 10:36:47;;;;;;;3.97;1.87;;;16.70;99.90;;;;;;502944;236;29313;-72
2022/05/13 10:38:48;;;;;;;5.27;1.50;;;16.70;99.90;;;;;;503119;236;29431;-71
2022/05/13 10:40:49;;;;;;;2.47;1.80;;;16.60;99.90;;;;;;503119;236;29318;-71
2022/05/13 10:42:50;;;;;;;1.60;1.50;;;16.70;99.90;;;;;;503182;236;28790;-72
2022/05/13 10:44:52;;;;;;;1.90;1.70;;;16.80;99.90;;;;;;503140;236;28756;-71
2022/05/13 10:46:53;;;;;;;3.87;1.73;;;16.60;99.90;;;;;;503166;236;28882;-72
2022/05/13 10:48:54;;;;;;;1.80;1.50;;;16.80;99.90;;;;;;503124;236;28760;-70
2022/05/13 10:50:56;;;;;;;4.30;2.27;;;16.90;99.90;;;;;;503088;236;28791;-71
2022/05/13 10:52:57;;;;;;;2.30;1.57;;;16.70;99.90;;;;;;503168;236;28785;-72
2022/05/13 10:54:58;;;;;;;1.97;1.43;;;16.70;99.90;;;;;;503120;236;28793;-71
2022/05/13 10:56:59;;;;;;;1.93;1.50;;;16.80;99.90;;;;;;503078;236;29354;-71
2022/05/13 10:59:01;;;;;;;4.63;1.57;;;16.80;99.90;;;;;;503128;236;29258;-71